• Join FlightAware (Why Join?)
  • Login
  • US Flag 
11:33AM EDT


 

Airport Tracker/Info


-or-


 

Live Flight TrackerFlight Track Log ✈ DAL6055 ✈ 18-Apr-2013 ✈ KSDF - KDTW

Flight Track Log - Related Links

Times and Time Zones

All times are in EDT time to prevent confusion due to time zone crossing. See the DAL6055 flight status page for this flight to view local times or setup timezone preferences in your user account.

Time Position Orientation Groundspeed Altitude Reporting Facility
EDT Latitude Longitude Course Direction KTS MPH feet Rate Location/Type
12:00PM 38.1431 -85.7158 165° South 155 178 1,800  Level FAA TRACON SMA TRACON (SMA)
12:01PM 38.1281 -85.7114 167° South 173 199 2,300 1,440 Climbing FAA TRACON SMA TRACON (SMA)
12:01PM 38.1117 -85.7056 164° South 193 222 2,800 1,800 Climbing FAA TRACON SMA TRACON (SMA)
12:01PM 38.0944 -85.7078 186° South 208 239 3,500 2,460 Climbing FAA TRACON SMA TRACON (SMA)
12:02PM 38.0772 -85.7269 221° Southwest 220 253 4,400 2,700 Climbing FAA TRACON SMA TRACON (SMA)
12:02PM 38.0719 -85.7503 254° West 225 259 5,300 2,520 Climbing FAA TRACON SMA TRACON (SMA)
12:02PM 38.0669 -85.7739 255° West 224 258 6,100 2,460 Climbing FAA TRACON SMA TRACON (SMA)
12:03PM 38.2423 -85.9606 349° North  Level FlightAware Approximate
12:03PM 38.0678 -85.8058 272° West 234 269 7,000  Level FAA TRACON SMA TRACON (SMA)
12:03PM 38.0692 -85.8317 274° West 239 275 7,600 1,800 Climbing FAA TRACON SMA TRACON (SMA)
12:03PM 38.0714 -85.8586 276° West 246 283 8,200 1,920 Climbing FAA TRACON SMA TRACON (SMA)
12:04PM 38.3522 -85.9833 North  Level FlightAware Approximate
12:04PM 38.0811 -85.8922 290° West 264 304 8,900  Level FAA TRACON SMA TRACON (SMA)
12:04PM 38.0997 -85.9136 318° Northwest 289 333 9,600 1,920 Climbing FAA TRACON SMA TRACON (SMA)
12:04PM 38.1253 -85.9247 341° North 312 359 10,200 1,800 Climbing FAA TRACON SMA TRACON (SMA)
12:05PM 38.4642 -85.9833 North  Level FlightAware Approximate
12:05PM 38.1522 -85.9336 345° North 324 373 10,800  Level FAA TRACON SMA TRACON (SMA)
12:05PM 38.1869 -85.9458 345° North 333 383 11,300 1,260 Climbing FAA TRACON SMA TRACON (SMA)
12:06PM 38.2464 -85.9369 North 367 422 12,100 1,380 Climbing FAA TRACON SMA TRACON (SMA)
12:06PM 38.2833 -85.9133 27° Northeast 381 438 12,700 1,620 Climbing FAA TRACON SMA TRACON (SMA)
12:06PM 38.3125 -85.8936 28° Northeast 385 443 13,200 1,320 Climbing FAA TRACON SMA TRACON (SMA)
12:07PM 38.3419 -85.8739 28° Northeast 387 445 13,600 1,320 Climbing FAA TRACON SMA TRACON (SMA)
12:07PM 38.3714 -85.8539 28° Northeast 388 447 14,100 1,620 Climbing FAA TRACON SMA TRACON (SMA)
12:07PM 38.4033 -85.8208 39° Northeast 386 444 14,700 1,500 Climbing FAA TRACON SMA TRACON (SMA)
12:08PM 38.4286 -85.7931 41° Northeast 387 445 15,100 1,320 Climbing FAA TRACON SMA TRACON (SMA)
12:08PM 38.4536 -85.7656 41° Northeast 386 444 15,600 1,620 Climbing FAA TRACON SMA TRACON (SMA)
12:08PM 38.4850 -85.7303 41° Northeast 388 447 16,200 1,500 Climbing FAA TRACON SMA TRACON (SMA)
12:09PM 38.5100 -85.7017 42° Northeast 391 450 16,600 1,320 Climbing FAA TRACON SMA TRACON (SMA)
12:09PM 38.5350 -85.6744 40° Northeast 388 447 17,100 1,500 Climbing FAA TRACON SMA TRACON (SMA)
12:09PM 38.5653 -85.6381 43° Northeast 387 445 17,600 1,320 Climbing FAA TRACON SMA TRACON (SMA)
12:10PM 38.5883 -85.6072 46° Northeast 389 448 18,000 1,500 Climbing FAA TRACON SMA TRACON (SMA)
12:10PM 38.6122 -85.5764 45° Northeast 392 451 18,600 1,620 Climbing FAA TRACON SMA TRACON (SMA)
12:10PM 38.6358 -85.5461 45° Northeast 392 451 19,100 1,320 Climbing FAA TRACON SMA TRACON (SMA)
12:11PM 38.6650 -85.5072 46° Northeast 394 453 19,600 1,320 Climbing FAA TRACON SMA TRACON (SMA)
12:11PM 38.6950 -85.4681 46° Northeast 397 457 20,100 1,320 Climbing FAA TRACON SMA TRACON (SMA)
12:11PM 38.7133 -85.4456 44° Northeast 397 457 20,400 1,500 Climbing FAA TRACON SMA TRACON (SMA)
12:12PM 38.7439 -85.4061 45° Northeast 404 465 21,000 1,500 Climbing FAA TRACON SMA TRACON (SMA)
12:12PM 38.7686 -85.3750 44° Northeast 403 464 21,400 1,320 Climbing FAA TRACON SMA TRACON (SMA)
12:12PM 38.7933 -85.3442 44° Northeast 404 465 21,900 1,440 Climbing FAA TRACON SMA TRACON (SMA)
12:13PM 38.8242 -85.3044 45° Northeast 407 468 22,400 1,320 Climbing FAA TRACON SMA TRACON (SMA)
12:13PM 38.8486 -85.2731 45° Northeast 405 466 22,800 900 Climbing FAA TRACON SMA TRACON (SMA)
12:13PM 38.8728 -85.2392 48° Northeast 411 473 23,000 1,200 Climbing FAA TRACON SMA TRACON (SMA)
12:14PM 38.9042 -85.1997 44° Northeast 413 475 23,600 1,620 Climbing FAA TRACON SMA TRACON (SMA)
12:14PM 38.9300 -85.1689 43° Northeast 412 474 24,100 1,260 Climbing FAA TRACON SMA TRACON (SMA)
12:15PM 38.9967 -85.1125 33° Northeast 412 474 24,900 1,080 Climbing FAA TRACON SMA TRACON (SMA)
12:15PM 39.0283 -85.0928 26° Northeast 413 475 25,200 720 Climbing FAA TRACON SMA TRACON (SMA)
12:15PM 39.0439 -85.0808 31° Northeast 415 478 25,400 1,020 Climbing FAA TRACON SMA TRACON (SMA)
12:16PM 39.1339 -85.0144 30° Northeast 419 482 26,400 840 Climbing Indianapolis Center
12:17PM 39.2394 -84.9406 28° Northeast 424 488 27,000 180 Climbing Indianapolis Center
12:18PM 39.3519 -84.8700 26° Northeast 444 511 26,800 -540 Descending Indianapolis Center
12:19PM 39.4750 -84.8319 13° North 449 517 25,900 -900 Descending Indianapolis Center
12:20PM 39.5942 -84.7933 14° North 441 507 25,000 -480 Descending Indianapolis Center
12:21PM 39.7100 -84.7547 14° North 429 494 25,000  Level Indianapolis Center
12:22PM 39.8278 -84.7164 14° North 430 495 25,000  Level Indianapolis Center
12:23PM 39.9439 -84.6783 14° North 426 490 25,000  Level Indianapolis Center
12:24PM 40.0631 -84.6408 14° North 433 498 25,000 -420 Level Indianapolis Center
12:25PM 40.1794 -84.6025 14° North 427 491 24,200 -840 Descending Indianapolis Center
12:26PM 40.3133 -84.5589 14° North 421 484 23,300 -600 Descending Indianapolis Center
12:27PM 40.4286 -84.5200 14° North 420 483 23,000 -180 Descending Indianapolis Center
12:28PM 40.5439 -84.4817 14° North 422 486 23,000  Level Indianapolis Center
12:29PM 40.6608 -84.4431 14° North 427 491 23,000  Level Indianapolis Center
12:30PM 40.7778 -84.4169 10° North 425 489 23,000  Level Indianapolis Center
12:31PM 40.8958 -84.4183 359° North 419 482 23,000  Level Indianapolis Center
12:32PM 40.9469 -84.4211 358° North 410 472 23,000  Level Cleveland Center
12:33PM 41.0636 -84.4253 358° North 410 472 23,000 -600 Level Cleveland Center
12:34PM 41.1781 -84.4292 359° North 410 472 21,800 -1,320 Descending Cleveland Center
12:35PM 41.2947 -84.4306 359° North 410 472 20,400 -1,440 Descending Cleveland Center
12:36PM 41.4136 -84.4347 358° North 416 479 19,000 -1,560 Descending Cleveland Center
12:37PM 41.5236 -84.3886 17° North 421 484 17,300 -1,800 Descending Cleveland Center
12:38PM 41.6122 -84.2883 40° Northeast 394 453 15,500 -1,980 Descending Cleveland Center
12:38PM 41.6428 -84.2511 42° Northeast 408 470 14,600 -2,220 Descending Cleveland Center
12:39PM 41.6967 -84.1903 40° Northeast 405 466 13,300 -1,560 Descending Cleveland Center
12:40PM 41.7811 -84.0919 41° Northeast 400 460 12,100 -660 Descending Cleveland Center
12:41PM 41.8442 -84.0089 44° Northeast 377 434 12,000  Descending Cleveland Center
12:42PM 41.9056 -83.9033 52° Northeast 361 415 12,100  Climbing Cleveland Center
12:43PM 41.9914 -83.8186 36° Northeast 361 415 12,000 -60 Descending Cleveland Center
12:44PM 42.0628 -83.7242 44° Northeast 361 415 12,000  Level Cleveland Center
12:45PM 42.1561 -83.6033 44° Northeast 363 418 12,000  Level FAA TRACON SMA TRACON (SMA)
12:45PM 42.1767 -83.5758 45° Northeast 332 382 12,000  Level FAA TRACON SMA TRACON (SMA)
12:46PM 42.1969 -83.5469 47° Northeast 314 361 12,000  Level FAA TRACON SMA TRACON (SMA)
12:46PM 42.2108 -83.5144 60° Northeast 266 306 12,000  Level FAA TRACON SMA TRACON (SMA)
12:46PM 42.2103 -83.4836 91° East 260 299 12,000 120 Level FAA TRACON SMA TRACON (SMA)
12:47PM 42.2067 -83.4542 99° East 260 299 12,100  Climbing FAA TRACON SMA TRACON (SMA)
12:47PM 42.2028 -83.4194 99° East 260 299 12,000 -180 Descending FAA TRACON SMA TRACON (SMA)
12:47PM 42.1989 -83.3889 100° East 246 283 12,000  Level FAA TRACON SMA TRACON (SMA)
12:48PM 42.1950 -83.3575 99° East 261 300 12,000 120 Level FAA TRACON SMA TRACON (SMA)
12:48PM 42.1917 -83.3228 97° East 271 312 12,100 -180 Climbing FAA TRACON SMA TRACON (SMA)
12:48PM 42.1886 -83.2928 98° East 268 308 11,900 -660 Descending FAA TRACON SMA TRACON (SMA)
12:49PM 42.1933 -83.2614 79° East 277 319 11,700 -1,200 Descending FAA TRACON SMA TRACON (SMA)
12:49PM 42.2017 -83.2222 74° East 286 329 11,100 -1,620 Descending FAA TRACON SMA TRACON (SMA)
12:49PM 42.2172 -83.1961 51° Northeast 291 335 10,600 -1,500 Descending FAA TRACON SMA TRACON (SMA)
12:50PM 42.2383 -83.1794 30° Northeast 254 292 10,100 -1,140 Descending FAA TRACON SMA TRACON (SMA)
12:50PM 42.2853 -83.1411 31° Northeast 274 315 9,500 -840 Descending FAA TRACON SMA TRACON (SMA)
12:51PM 42.3006 -83.1175 49° Northeast 303 349 9,300 -600 Descending FAA TRACON SMA TRACON (SMA)
12:51PM 42.3169 -83.0894 52° Northeast 287 330 9,100 -480 Descending FAA TRACON SMA TRACON (SMA)
12:51PM 42.3314 -83.0525 62° Northeast 292 336 9,000 -180 Descending FAA TRACON SMA TRACON (SMA)
12:52PM 42.3378 -83.0247 73° East 289 333 9,000  Level FAA TRACON SMA TRACON (SMA)
12:52PM 42.3447 -82.9917 74° East 280 322 9,000  Level FAA TRACON SMA TRACON (SMA)
12:52PM 42.3528 -82.9533 74° East 276 318 9,000  Level FAA TRACON SMA TRACON (SMA)
12:53PM 42.3592 -82.9272 72° East 277 319 9,000  Level FAA TRACON SMA TRACON (SMA)
12:53PM 42.3831 -82.8975 43° Northeast 252 290 9,000 -660 Level FAA TRACON SMA TRACON (SMA)
12:54PM 42.4250 -82.9081 349° North 228 262 8,400 -1,020 Descending FAA TRACON SMA TRACON (SMA)